Time;durP1;ratioP1;P1;durP2;ratioP2;P2;SDS_P1;SDS_P2;PMS_P1;PMS_P2;Temp;Humidity;BMP_temperature;BMP_pressure;BME280_temperature;BME280_humidity;BME280_pressure;Samples;Min_cycle;Max_cycle;Signal;HPM_P1;HPM_P2
2023/09/04 00:00:27;;;;;;;4.00;3.00;;;;;;;22.06;72.51;99571.44;4841453;29;20037;-41
2023/09/04 00:02:52;;;;;;;5.15;3.00;;;;;;;22.33;70.44;99574.75;4841307;29;20385;-44
2023/09/04 00:05:18;;;;;;;4.97;3.20;;;;;;;22.22;70.42;99576.75;4841392;29;20390;-42
2023/09/04 00:07:45;;;;;;;3.55;2.65;;;;;;;21.97;71.04;99569.63;4841051;29;20034;-43
2023/09/04 00:10:11;;;;;;;3.03;2.72;;;;;;;22.19;70.57;99566.47;4840860;29;20034;-42
2023/09/04 00:12:36;;;;;;;5.25;2.72;;;;;;;22.27;69.78;99562.34;4841025;29;20037;-41
2023/09/04 00:15:02;;;;;;;3.97;3.13;;;;;;;22.38;68.78;99553.03;4841157;29;20045;-41
2023/09/04 00:17:27;;;;;;;4.00;2.47;;;;;;;22.35;68.01;99548.19;4841150;29;20025;-42
2023/09/04 00:19:53;;;;;;;4.82;2.67;;;;;;;22.50;67.46;99539.88;4841324;29;20045;-42
2023/09/04 00:22:19;;;;;;;3.00;2.50;;;;;;;22.69;66.09;99544.56;4840021;29;20029;-42
2023/09/04 00:24:44;;;;;;;3.33;2.80;;;;;;;22.67;65.75;99558.41;4841347;29;20383;-43
2023/09/04 00:27:10;;;;;;;2.70;2.47;;;;;;;22.75;66.28;99562.41;4841110;29;20033;-42
2023/09/04 00:29:35;;;;;;;3.22;2.53;;;;;;;22.88;65.29;99558.97;4840997;29;20445;-42
2023/09/04 00:32:02;;;;;;;3.83;2.63;;;;;;;23.02;64.71;99559.91;4840491;29;20030;-44
2023/09/04 00:34:28;;;;;;;4.55;2.70;;;;;;;22.91;64.71;99557.63;4840150;29;20029;-43
2023/09/04 00:36:53;;;;;;;2.85;2.50;;;;;;;22.70;66.71;99565.97;4840440;29;20033;-42
2023/09/04 00:39:18;;;;;;;3.60;2.63;;;;;;;22.61;67.19;99567.72;4840092;29;20037;-41
2023/09/04 00:41:45;;;;;;;3.38;2.65;;;;;;;22.65;67.74;99558.69;4839695;29;20018;-42
2023/09/04 00:44:11;;;;;;;4.25;2.95;;;;;;;22.63;67.51;99560.88;4840374;29;20038;-42
2023/09/04 00:46:37;;;;;;;5.18;3.10;;;;;;;22.67;67.21;99554.91;4840107;29;20410;-43
2023/09/04 00:49:03;;;;;;;3.13;2.78;;;;;;;22.57;67.71;99555.81;4839575;29;20501;-43
2023/09/04 00:51:29;;;;;;;4.00;2.92;;;;;;;22.69;66.71;99558.13;4838554;29;20598;-44
2023/09/04 00:53:55;;;;;;;4.30;2.92;;;;;;;22.67;66.36;99554.91;4839094;29;20040;-43
2023/09/04 00:56:22;;;;;;;3.28;2.63;;;;;;;22.73;66.39;99548.31;4839424;29;20543;-43
2023/09/04 00:58:48;;;;;;;3.55;3.00;;;;;;;22.62;66.73;99547.63;4839457;29;20069;-42
2023/09/04 01:01:14;;;;;;;4.53;2.92;;;;;;;22.67;66.91;99544.84;4839706;29;20037;-44
2023/09/04 01:03:39;;;;;;;4.03;3.30;;;;;;;22.60;66.76;99542.50;4840867;29;20030;-42
2023/09/04 01:06:05;;;;;;;4.82;3.10;;;;;;;22.76;65.92;99545.03;4841174;29;20428;-46
2023/09/04 01:08:30;;;;;;;3.30;2.90;;;;;;;22.62;66.07;99534.88;4841050;29;20030;-43
2023/09/04 01:11:10;;;;;;;3.40;3.10;;;;;;;22.67;66.25;99539.44;4840390;29;20026;-43
2023/09/04 01:13:39;;;;;;;3.90;3.10;;;;;;;22.68;65.83;99534.84;4841275;29;20022;-43
2023/09/04 01:16:06;;;;;;;3.47;3.08;;;;;;;22.63;66.29;99539.19;4840960;29;20100;-45
2023/09/04 01:18:34;;;;;;;5.40;2.90;;;;;;;22.59;66.43;99542.78;4840925;29;20566;-42
2023/09/04 01:21:04;;;;;;;3.40;3.00;;;;;;;22.67;66.37;99547.56;4840713;29;20029;-44
2023/09/04 01:23:29;;;;;;;3.72;3.30;;;;;;;22.74;66.02;99544.53;4840180;29;20033;-42
2023/09/04 01:26:05;;;;;;;4.75;3.00;;;;;;;22.86;65.28;99549.53;4840102;29;20480;-42
2023/09/04 01:28:55;;;;;;;6.43;3.10;;;;;;;22.81;65.66;99558.56;4840522;29;20059;-42
2023/09/04 01:31:26;;;;;;;3.30;2.92;;;;;;;22.78;65.48;99534.69;4839871;29;20041;-44
2023/09/04 01:34:15;;;;;;;3.60;3.03;;;;;;;22.66;66.50;99545.97;4839856;29;20073;-46
2023/09/04 01:36:43;;;;;;;4.95;3.25;;;;;;;22.65;66.36;99547.84;4840482;29;20159;-42
2023/09/04 01:39:09;;;;;;;3.70;3.25;;;;;;;22.67;66.13;99547.56;4854278;29;20030;-42
2023/09/04 01:41:38;;;;;;;4.25;3.20;;;;;;;23.05;64.86;99538.75;4839933;29;20036;-42
2023/09/04 01:44:05;;;;;;;4.00;3.10;;;;;;;23.09;64.49;99543.28;4840198;29;20033;-42
2023/09/04 01:46:31;;;;;;;4.10;3.20;;;;;;;23.61;62.41;99548.84;4840245;29;20030;-43
2023/09/04 01:48:57;;;;;;;3.92;3.13;;;;;;;23.88;61.23;99531.06;4840401;29;20247;-44
2023/09/04 01:51:22;;;;;;;3.65;3.15;;;;;;;23.99;60.82;99537.94;4839825;29;20030;-42
2023/09/04 01:53:47;;;;;;;4.20;3.30;;;;;;;24.00;60.99;99534.09;4839799;29;20037;-43
2023/09/04 01:56:13;;;;;;;4.03;3.28;;;;;;;23.96;61.11;99533.88;4839894;29;20026;-42
2023/09/04 01:58:38;;;;;;;5.18;3.70;;;;;;;23.94;61.18;99527.16;4839364;29;20058;-42
2023/09/04 02:01:04;;;;;;;6.00;3.42;;;;;;;23.87;61.41;99516.66;4839795;29;20724;-42
2023/09/04 02:03:29;;;;;;;3.80;3.20;;;;;;;23.21;63.70;99530.13;4839995;29;20034;-43
2023/09/04 02:05:55;;;;;;;4.10;3.50;;;;;;;23.59;62.61;99530.09;4839970;29;20441;-42
2023/09/04 02:08:20;;;;;;;4.28;3.38;;;;;;;23.63;62.37;99524.91;4840324;29;20105;-43
2023/09/04 02:10:49;;;;;;;5.63;3.55;;;;;;;23.47;62.62;99521.59;4840095;29;20030;-44
2023/09/04 02:13:14;;;;;;;3.40;3.03;;;;;;;23.56;61.94;99517.09;4839706;29;20030;-41
2023/09/04 02:15:40;;;;;;;3.65;3.10;;;;;;;23.74;60.95;99507.34;4839505;29;20105;-43
2023/09/04 02:18:05;;;;;;;4.10;3.20;;;;;;;23.64;61.18;99512.13;4839826;29;20025;-42
2023/09/04 02:20:32;;;;;;;3.35;3.00;;;;;;;23.29;62.17;99498.78;4839810;29;20593;-42
2023/09/04 02:22:58;;;;;;;3.58;3.10;;;;;;;23.31;61.82;99501.22;4839067;29;20113;-43
2023/09/04 02:25:25;;;;;;;3.92;2.80;;;;;;;23.40;60.63;99494.81;4839821;29;20033;-42
2023/09/04 02:27:51;;;;;;;4.13;2.83;;;;;;;22.98;60.80;99479.38;4839874;29;20439;-42
2023/09/04 02:30:16;;;;;;;3.50;2.75;;;;;;;22.74;60.83;99482.13;4839722;29;20075;-42
2023/09/04 02:32:43;;;;;;;3.65;2.80;;;;;;;22.65;61.15;99482.75;4839392;29;20168;-44
2023/09/04 02:35:08;;;;;;;4.03;2.80;;;;;;;23.03;60.05;99490.19;4839287;29;20094;-47
2023/09/04 02:37:34;;;;;;;3.38;2.80;;;;;;;22.93;60.85;99488.41;4839074;29;20034;-46
2023/09/04 02:39:59;;;;;;;4.72;2.80;;;;;;;22.92;60.89;99473.19;4838927;29;20095;-45
2023/09/04 02:42:27;;;;;;;3.28;2.83;;;;;;;22.88;60.61;99474.88;4839600;29;20026;-41
2023/09/04 02:44:53;;;;;;;3.72;2.97;;;;;;;22.81;60.65;99472.56;4839654;29;20034;-44
2023/09/04 02:47:18;;;;;;;4.70;2.80;;;;;;;22.51;61.67;99475.63;4839545;29;20030;-46
2023/09/04 02:49:44;;;;;;;2.88;2.58;;;;;;;22.57;61.12;99467.16;4839762;29;20365;-44
2023/09/04 02:52:11;;;;;;;3.33;2.63;;;;;;;22.18;62.03;99462.69;4838869;29;20022;-43
2023/09/04 02:54:36;;;;;;;3.85;2.70;;;;;;;22.56;60.93;99465.53;4839367;29;20030;-43
2023/09/04 02:57:02;;;;;;;4.88;2.78;;;;;;;22.42;60.58;99460.00;4838969;29;20082;-44
2023/09/04 02:59:28;;;;;;;3.53;2.63;;;;;;;22.17;60.84;99465.69;4838772;29;20546;-44
2023/09/04 03:01:54;;;;;;;3.63;2.58;;;;;;;22.36;60.38;99463.06;4839018;29;20029;-48
2023/09/04 03:04:19;;;;;;;2.50;2.30;;;;;;;22.36;60.09;99461.16;4839504;29;20451;-46
2023/09/04 03:06:45;;;;;;;3.67;2.53;;;;;;;22.37;59.77;99460.06;4839636;29;20029;-45
2023/09/04 03:09:10;;;;;;;3.45;2.90;;;;;;;22.19;60.26;99458.06;4839797;29;20336;-44
2023/09/04 03:11:36;;;;;;;3.95;2.50;;;;;;;22.24;59.78;99458.81;4838908;29;20026;-44
2023/09/04 03:14:01;;;;;;;3.88;2.60;;;;;;;22.32;59.64;99457.41;4839134;29;20022;-43
2023/09/04 03:16:28;;;;;;;6.75;4.45;;;;;;;22.42;58.83;99457.28;4839152;29;20075;-43
2023/09/04 03:18:54;;;;;;;6.03;4.28;;;;;;;22.18;59.74;99454.56;4839189;29;20037;-44
2023/09/04 03:21:19;;;;;;;12.00;7.40;;;;;;;22.22;59.45;99450.19;4839031;29;20026;-39
2023/09/04 03:23:47;;;;;;;10.45;6.50;;;;;;;22.32;59.16;99448.47;4839464;29;20029;-40
2023/09/04 03:26:13;;;;;;;5.18;2.50;;;;;;;22.41;58.69;99452.97;4839439;29;20154;-41
2023/09/04 03:28:39;;;;;;;3.17;2.35;;;;;;;22.33;58.65;99453.63;4839160;29;20045;-40
2023/09/04 03:31:04;;;;;;;5.22;2.70;;;;;;;22.22;58.91;99463.72;4839416;29;20034;-41
2023/09/04 03:33:29;;;;;;;3.22;2.50;;;;;;;22.25;58.82;99457.75;4840000;29;20041;-42
2023/09/04 03:35:57;;;;;;;2.60;2.30;;;;;;;22.33;58.60;99456.34;4842303;29;20033;-41
2023/09/04 03:38:23;;;;;;;3.78;2.53;;;;;;;22.44;58.34;99459.72;4842483;29;20057;-41
2023/09/04 03:40:49;;;;;;;3.15;2.60;;;;;;;22.41;58.44;99449.47;4842138;29;20384;-41
2023/09/04 03:43:14;;;;;;;2.97;2.50;;;;;;;22.21;59.22;99456.69;4842522;29;20038;-41
2023/09/04 03:45:40;;;;;;;3.03;2.50;;;;;;;22.06;59.29;99446.78;4842907;29;20026;-40
2023/09/04 03:48:05;;;;;;;3.35;2.40;;;;;;;22.28;58.96;99459.09;4842594;29;20356;-43
2023/09/04 03:50:32;;;;;;;3.03;2.30;;;;;;;22.49;58.27;99467.78;4842613;29;20026;-41
2023/09/04 03:52:58;;;;;;;5.95;3.88;;;;;;;22.59;57.74;99456.81;4842158;29;20034;-42
2023/09/04 03:55:24;;;;;;;3.00;2.40;;;;;;;22.65;57.31;99463.78;4842306;29;20032;-41
2023/09/04 03:57:51;;;;;;;3.20;2.50;;;;;;;22.36;58.20;99457.66;4842179;29;20038;-43
2023/09/04 04:00:17;;;;;;;2.88;2.22;;;;;;;22.17;58.82;99458.34;4841737;29;20046;-42
2023/09/04 04:02:44;;;;;;;3.83;2.80;;;;;;;22.14;58.89;99441.84;4842220;29;20144;-41
2023/09/04 04:05:11;;;;;;;4.60;2.80;;;;;;;22.34;58.46;99465.25;4841807;29;20064;-41
2023/09/04 04:07:37;;;;;;;4.40;2.40;;;;;;;22.30;58.44;99465.03;4841857;29;20423;-41
2023/09/04 04:10:02;;;;;;;2.83;2.40;;;;;;;22.42;58.15;99467.31;4841488;29;20032;-41
2023/09/04 04:12:28;;;;;;;3.85;2.40;;;;;;;22.51;58.14;99470.22;4842529;29;20045;-41
2023/09/04 04:14:54;;;;;;;2.42;2.10;;;;;;;22.17;59.77;99474.59;4841632;29;20534;-42
2023/09/04 04:17:19;;;;;;;2.67;2.22;;;;;;;22.04;60.66;99473.38;4841349;29;20022;-41
2023/09/04 04:19:45;;;;;;;2.95;2.20;;;;;;;22.26;61.06;99480.25;4846566;29;20103;-40
2023/09/04 04:22:10;;;;;;;11.80;7.85;;;;;;;22.19;63.22;99488.69;4850432;29;20108;-40
2023/09/04 04:24:36;;;;;;;13.25;6.72;;;;;;;22.37;63.13;99487.19;4860230;29;20044;-38
2023/09/04 04:27:01;;;;;;;5.75;3.00;;;;;;;22.29;65.02;99503.25;4859994;29;20125;-38
2023/09/04 04:29:27;;;;;;;7.28;3.15;;;;;;;22.16;67.23;99500.09;4860163;29;20033;-38
2023/09/04 04:31:53;;;;;;;3.85;2.65;;;;;;;22.11;67.35;99502.84;4860014;29;20487;-39
2023/09/04 04:34:18;;;;;;;6.43;4.78;;;;;;;22.05;68.15;99514.84;4860177;29;20037;-38
2023/09/04 04:36:44;;;;;;;7.60;4.78;;;;;;;21.73;69.37;99520.81;4860110;29;20025;-38
2023/09/04 04:39:09;;;;;;;3.85;3.20;;;;;;;21.78;70.89;99526.97;4860391;29;20370;-38
2023/09/04 04:41:35;;;;;;;7.15;3.20;;;;;;;21.59;71.83;99542.28;4859959;29;20033;-39
2023/09/04 04:44:00;;;;;;;11.32;5.75;;;;;;;21.19;73.23;99539.53;4860271;29;20081;-39
2023/09/04 04:46:26;;;;;;;4.40;3.20;;;;;;;20.97;74.51;99548.00;4859704;29;20026;-39
2023/09/04 04:48:52;;;;;;;6.32;3.08;;;;;;;20.87;75.93;99554.25;4860316;29;20025;-39
2023/09/04 04:51:17;;;;;;;6.53;3.50;;;;;;;21.01;75.87;99554.47;4859817;29;20044;-38
2023/09/04 04:53:43;;;;;;;5.60;3.78;;;;;;;21.01;75.88;99559.06;4859345;29;20040;-39
2023/09/04 04:56:08;;;;;;;7.20;3.88;;;;;;;20.67;78.10;99559.72;4859778;29;20029;-39
2023/09/04 04:58:33;;;;;;;7.63;3.78;;;;;;;20.71;78.06;99558.09;4859545;29;20049;-39
2023/09/04 05:00:59;;;;;;;8.32;4.45;;;;;;;21.13;75.33;99566.84;4859681;29;20025;-37
2023/09/04 05:03:24;;;;;;;6.75;4.30;;;;;;;20.94;76.39;99574.78;4859385;29;20486;-40
2023/09/04 05:05:50;;;;;;;5.00;3.83;;;;;;;20.64;77.12;99565.69;4859266;29;20064;-38
2023/09/04 05:08:15;;;;;;;12.43;7.82;;;;;;;20.61;76.94;99580.56;4859349;29;20098;-38
2023/09/04 05:10:40;;;;;;;5.38;3.65;;;;;;;20.07;79.02;99575.72;4859418;29;20081;-38
2023/09/04 05:13:06;;;;;;;3.90;3.38;;;;;;;20.26;77.64;99576.00;4859486;29;20459;-38
2023/09/04 05:15:31;;;;;;;4.95;3.40;;;;;;;20.05;79.54;99573.31;4858659;29;20037;-38
2023/09/04 05:17:57;;;;;;;4.05;3.40;;;;;;;19.94;79.42;99578.97;4858581;29;20712;-38
2023/09/04 05:20:22;;;;;;;4.32;3.40;;;;;;;19.99;79.46;99570.84;4858238;29;20037;-38
2023/09/04 05:22:48;;;;;;;6.03;3.17;;;;;;;20.23;78.06;99563.81;4858294;29;20033;-39
2023/09/04 05:25:13;;;;;;;4.65;3.55;;;;;;;20.09;79.57;99568.97;4858456;29;20033;-38
2023/09/04 05:27:39;;;;;;;5.05;3.05;;;;;;;19.60;80.08;99580.22;4858238;29;20061;-38
2023/09/04 05:30:05;;;;;;;5.47;3.38;;;;;;;20.13;78.88;99580.03;4857437;29;20038;-38
2023/09/04 05:32:30;;;;;;;4.32;3.55;;;;;;;20.16;79.70;99579.50;4858173;29;20072;-39
2023/09/04 05:34:55;;;;;;;4.78;3.47;;;;;;;20.38;78.45;99581.13;4858318;29;20112;-38
2023/09/04 05:37:22;;;;;;;5.25;3.50;;;;;;;20.61;76.06;99582.44;4858375;29;20558;-38
2023/09/04 05:39:47;;;;;;;4.82;3.20;;;;;;;20.53;75.92;99575.69;4858092;29;20066;-38
2023/09/04 05:42:13;;;;;;;4.38;3.40;;;;;;;20.98;73.59;99576.69;4858587;29;20025;-38
2023/09/04 05:44:38;;;;;;;6.25;3.60;;;;;;;21.12;74.40;99576.09;4858345;29;20037;-39
2023/09/04 05:47:04;;;;;;;5.93;3.80;;;;;;;21.16;73.10;99569.81;4858707;29;20081;-38
2023/09/04 05:49:29;;;;;;;4.32;3.50;;;;;;;21.40;71.97;99577.28;4858756;29;20025;-39
2023/09/04 05:51:54;;;;;;;4.45;3.70;;;;;;;20.96;73.09;99586.13;4858615;29;20479;-38
2023/09/04 05:54:22;;;;;;;4.75;3.60;;;;;;;21.15;72.69;99576.34;4858691;29;20025;-39
2023/09/04 05:56:48;;;;;;;5.60;3.60;;;;;;;20.69;74.57;99582.72;4858504;29;20096;-39
2023/09/04 05:59:14;;;;;;;6.15;3.90;;;;;;;20.95;74.83;99581.81;4858378;29;20136;-38
2023/09/04 06:01:39;;;;;;;5.20;3.50;;;;;;;21.03;73.78;99587.44;4858625;29;20406;-38
2023/09/04 06:04:05;;;;;;;4.97;3.70;;;;;;;21.17;73.03;99576.03;4858434;29;20037;-38
2023/09/04 06:06:30;;;;;;;5.47;3.67;;;;;;;20.83;73.38;99587.53;4858060;29;20104;-38
2023/09/04 06:08:56;;;;;;;7.35;4.05;;;;;;;21.12;72.63;99586.91;4857695;29;20057;-38
2023/09/04 06:11:21;;;;;;;6.05;4.20;;;;;;;21.14;72.64;99587.44;4858095;29;20036;-39
2023/09/04 06:13:48;;;;;;;7.88;3.95;;;;;;;21.23;71.59;99585.78;4857897;29;20243;-39
2023/09/04 06:16:19;;;;;;;6.28;4.40;;;;;;;21.41;71.34;99589.72;4858294;29;20128;-40
2023/09/04 06:18:44;;;;;;;6.63;4.20;;;;;;;21.57;70.82;99576.94;4858092;29;20026;-40
2023/09/04 06:21:09;;;;;;;6.88;4.60;;;;;;;21.93;69.65;99590.22;4858500;29;20056;-38
2023/09/04 06:23:35;;;;;;;8.57;5.03;;;;;;;21.94;69.64;99595.38;4857715;29;20029;-39
2023/09/04 06:26:02;;;;;;;8.05;4.95;;;;;;;21.79;70.61;99590.06;4851670;29;20409;-38
2023/09/04 06:28:28;;;;;;;7.63;4.82;;;;;;;22.02;71.01;99597.47;4858118;29;20032;-39
2023/09/04 06:30:55;;;;;;;9.88;4.95;;;;;;;22.15;71.62;99597.94;4857549;29;20025;-39
2023/09/04 06:33:20;;;;;;;4.43;4.00;;;;;;;22.33;70.06;99602.69;4857613;29;20036;-39
2023/09/04 06:35:46;;;;;;;6.50;4.10;;;;;;;22.35;69.78;99599.66;4857888;29;20017;-39
2023/09/04 06:38:12;;;;;;;5.25;4.65;;;;;;;22.32;70.13;99601.06;4856311;29;20467;-38
2023/09/04 06:40:38;;;;;;;5.38;4.35;;;;;;;22.48;69.87;99609.84;4847526;29;20116;-39
2023/09/04 06:43:03;;;;;;;5.75;4.38;;;;;;;22.46;70.35;99606.63;4839187;29;20101;-39
2023/09/04 06:45:28;;;;;;;5.85;3.70;;;;;;;22.24;70.70;99612.50;4839251;29;20479;-40
2023/09/04 06:47:54;;;;;;;5.53;4.03;;;;;;;22.43;69.42;99607.22;4839163;29;20028;-42
2023/09/04 06:50:19;;;;;;;7.65;4.53;;;;;;;22.26;70.34;99613.06;4837551;29;20028;-38
2023/09/04 06:52:45;;;;;;;6.13;4.28;;;;;;;22.27;70.41;99603.81;4838931;29;20052;-39
2023/09/04 06:55:10;;;;;;;9.27;5.05;;;;;;;22.35;70.54;99610.53;4838752;29;20505;-39
2023/09/04 06:57:36;;;;;;;7.95;4.60;;;;;;;22.20;70.62;99601.41;4839060;29;20097;-38
2023/09/04 07:00:11;;;;;;;9.10;6.15;;;;;;;22.28;69.86;99612.78;4838699;29;20113;-37
2023/09/04 07:02:37;;;;;;;12.43;8.25;;;;;;;22.51;69.45;99609.28;4838699;29;20078;-39
2023/09/04 07:05:07;;;;;;;17.15;8.98;;;;;;;22.76;67.99;99608.22;4838424;29;20416;-39
2023/09/04 07:07:35;;;;;;;12.23;8.30;;;;;;;22.64;69.58;99607.81;4838735;29;20122;-38
2023/09/04 07:10:02;;;;;;;8.77;6.63;;;;;;;22.73;69.28;99603.38;4842320;29;20034;-39
2023/09/04 07:12:29;;;;;;;8.95;6.40;;;;;;;22.90;68.52;99612.97;4842593;29;20407;-39
2023/09/04 07:14:55;;;;;;;9.15;6.30;;;;;;;22.78;69.05;99616.06;4842271;29;20491;-38
2023/09/04 07:17:20;;;;;;;9.98;5.88;;;;;;;22.76;69.36;99620.97;4842672;29;20037;-39
2023/09/04 07:19:45;;;;;;;8.48;5.75;;;;;;;22.63;69.86;99625.16;4842304;29;20107;-39
2023/09/04 07:22:11;;;;;;;10.88;6.45;;;;;;;22.68;70.13;99629.75;4842345;29;20471;-38
2023/09/04 07:24:36;;;;;;;9.18;5.68;;;;;;;22.50;70.82;99631.25;4842872;29;20162;-38
2023/09/04 07:27:02;;;;;;;11.32;6.25;;;;;;;22.47;71.12;99632.66;4842807;29;20034;-39
2023/09/04 07:29:27;;;;;;;8.38;4.70;;;;;;;22.59;68.76;99638.50;4842436;29;20033;-39
2023/09/04 07:31:53;;;;;;;5.50;4.50;;;;;;;22.61;68.27;99633.59;4842401;29;20041;-38
2023/09/04 07:34:19;;;;;;;7.07;4.50;;;;;;;22.43;68.62;99635.13;4841837;29;20033;-38
2023/09/04 07:36:44;;;;;;;5.10;4.45;;;;;;;22.32;68.80;99638.22;4841590;29;20029;-38
2023/09/04 07:39:10;;;;;;;4.97;4.45;;;;;;;22.30;69.32;99637.69;4841982;29;20030;-39
2023/09/04 07:41:35;;;;;;;7.55;4.60;;;;;;;22.38;69.53;99646.00;4841289;29;20414;-39
2023/09/04 07:44:00;;;;;;;5.45;4.32;;;;;;;22.53;69.48;99650.47;4841657;29;20078;-38
2023/09/04 07:46:26;;;;;;;6.90;5.00;;;;;;;22.64;68.82;99645.78;4842118;29;20025;-38
2023/09/04 07:48:51;;;;;;;6.70;4.82;;;;;;;22.67;69.13;99645.19;4841831;29;20026;-39
2023/09/04 07:51:19;;;;;;;7.60;4.80;;;;;;;22.79;69.55;99647.50;4841797;29;20487;-39
2023/09/04 07:53:44;;;;;;;7.78;4.90;;;;;;;22.91;69.83;99641.72;4841804;29;20128;-39
2023/09/04 07:56:10;;;;;;;6.22;4.68;;;;;;;23.06;68.98;99632.63;4841642;29;20566;-38
2023/09/04 07:58:38;;;;;;;8.20;5.32;;;;;;;23.28;68.56;99643.75;4841516;29;20081;-38
2023/09/04 08:01:03;;;;;;;7.15;5.43;;;;;;;23.20;68.81;99641.69;4841286;29;20439;-39
2023/09/04 08:03:29;;;;;;;6.78;5.03;;;;;;;22.95;69.00;99640.03;4841148;29;20028;-38
2023/09/04 08:05:55;;;;;;;6.43;4.32;;;;;;;23.08;67.86;99641.28;4840949;29;20101;-38
2023/09/04 08:08:20;;;;;;;4.82;3.63;;;;;;;23.23;67.21;99641.91;4841568;29;20024;-38
2023/09/04 08:10:49;;;;;;;7.28;3.85;;;;;;;23.31;67.05;99642.38;4841433;29;20077;-39
2023/09/04 08:13:19;;;;;;;6.18;3.67;;;;;;;22.98;68.80;99637.56;4840262;29;20106;-37
2023/09/04 08:15:45;;;;;;;5.20;4.03;;;;;;;22.95;68.38;99627.28;4841834;29;20034;-38
2023/09/04 08:18:11;;;;;;;4.63;3.53;;;;;;;22.98;68.09;99640.28;4841481;29;20106;-38
2023/09/04 08:20:37;;;;;;;5.15;4.20;;;;;;;22.79;69.34;99640.22;4841380;29;20499;-38
2023/09/04 08:23:03;;;;;;;4.10;3.63;;;;;;;23.09;67.45;99648.31;4841080;29;20048;-40
2023/09/04 08:25:29;;;;;;;4.38;3.40;;;;;;;23.26;66.87;99651.38;4840962;29;20034;-39
2023/09/04 08:27:54;;;;;;;6.00;3.80;;;;;;;23.16;67.06;99656.94;4840878;29;20036;-39
2023/09/04 08:30:20;;;;;;;5.15;3.35;;;;;;;23.25;67.32;99651.66;4840617;29;20030;-38
2023/09/04 08:32:47;;;;;;;4.15;3.22;;;;;;;23.14;65.91;99653.69;4840145;29;20459;-38
2023/09/04 08:35:13;;;;;;;4.28;3.10;;;;;;;23.43;65.87;99651.69;4840487;29;20044;-39
2023/09/04 08:37:39;;;;;;;4.03;3.28;;;;;;;23.60;65.40;99653.91;4840921;29;20470;-39
2023/09/04 08:40:05;;;;;;;3.83;3.33;;;;;;;23.52;66.44;99654.59;4840068;29;20475;-38
2023/09/04 08:42:31;;;;;;;4.03;3.20;;;;;;;23.36;65.11;99648.56;4840905;29;20075;-39
2023/09/04 08:44:58;;;;;;;4.07;3.25;;;;;;;23.56;64.38;99649.38;4841149;29;20494;-39
2023/09/04 08:47:23;;;;;;;3.95;3.20;;;;;;;23.70;64.41;99652.16;4840430;29;20061;-38
2023/09/04 08:49:51;;;;;;;3.55;3.05;;;;;;;23.81;64.21;99648.25;4840493;29;20069;-39
2023/09/04 08:52:17;;;;;;;4.32;3.20;;;;;;;23.88;63.99;99653.31;4840058;29;20026;-38
2023/09/04 08:54:42;;;;;;;4.85;3.40;;;;;;;22.86;67.88;99658.84;4839239;29;20486;-38
2023/09/04 08:57:09;;;;;;;5.32;3.78;;;;;;;22.35;70.28;99659.31;4840074;29;20089;-36
2023/09/04 08:59:34;;;;;;;5.47;3.50;;;;;;;22.68;69.28;99657.69;4839379;29;20080;-39
2023/09/04 09:02:04;;;;;;;6.03;3.42;;;;;;;22.90;68.45;99656.38;4840003;29;20505;-40
2023/09/04 09:04:30;;;;;;;;;;;;;;;23.25;66.49;99652.50;4840976;29;20440;-39
2023/09/04 09:06:57;;;;;;;4.78;3.30;;;;;;;22.61;65.37;99659.91;4840947;29;19920;-40
2023/09/04 09:09:22;;;;;;;4.18;3.22;;;;;;;22.87;64.94;99654.25;4840587;29;20026;-40
2023/09/04 09:11:53;;;;;;;3.70;3.30;;;;;;;22.98;65.13;99658.44;4840274;29;20415;-39
2023/09/04 09:14:20;;;;;;;4.18;3.25;;;;;;;23.16;64.67;99652.31;4839531;29;20113;-38
2023/09/04 09:16:45;;;;;;;4.75;3.15;;;;;;;23.29;65.25;99658.16;4839942;29;20545;-40
2023/09/04 09:19:13;;;;;;;4.97;3.25;;;;;;;23.37;65.31;99658.28;4840232;29;20116;-39
2023/09/04 09:21:39;;;;;;;4.15;3.28;;;;;;;23.47;65.02;99654.63;4839578;29;20556;-39
2023/09/04 09:24:18;;;;;;;4.00;3.17;;;;;;;22.99;66.24;99657.34;4839633;29;20029;-39
2023/09/04 09:26:47;;;;;;;4.10;3.47;;;;;;;23.11;65.46;99660.50;4839363;29;20029;-39
2023/09/04 09:29:13;;;;;;;6.13;3.22;;;;;;;23.15;65.37;99656.13;4839845;29;20114;-37
2023/09/04 09:31:42;;;;;;;4.53;3.38;;;;;;;22.98;65.30;99664.69;4839225;29;20581;-40
2023/09/04 09:34:08;;;;;;;5.03;3.30;;;;;;;23.00;65.60;99659.78;4839302;29;20050;-38
2023/09/04 09:36:34;;;;;;;5.68;3.90;;;;;;;22.20;68.52;99660.19;4839710;29;20033;-40
2023/09/04 09:38:59;;;;;;;4.55;3.80;;;;;;;21.76;70.31;99661.03;4839834;29;20102;-41
2023/09/04 09:41:28;;;;;;;5.97;4.00;;;;;;;22.41;68.33;99655.50;4839812;29;20026;-39
2023/09/04 09:43:53;;;;;;;7.27;3.90;;;;;;;22.47;69.61;99657.06;4839721;29;20102;-38
2023/09/04 09:46:19;;;;;;;7.10;5.68;;;;;;;22.35;69.77;99662.03;4839757;29;20266;-40
2023/09/04 09:48:46;;;;;;;5.47;3.78;;;;;;;22.46;69.32;99652.72;4839829;29;20033;-39
2023/09/04 09:51:12;;;;;;;3.90;3.42;;;;;;;22.68;68.57;99654.16;4839366;29;20426;-40
2023/09/04 09:53:51;;;;;;;4.43;3.83;;;;;;;22.37;69.16;99647.09;4839843;29;20104;-39
2023/09/04 09:56:18;;;;;;;4.40;3.42;;;;;;;22.56;68.46;99652.63;4839658;29;20034;-39
2023/09/04 09:58:49;;;;;;;4.30;3.67;;;;;;;22.39;69.39;99660.34;4839694;29;20049;-39
2023/09/04 10:01:16;;;;;;;4.75;4.10;;;;;;;21.89;70.19;99654.19;4839391;29;20033;-42
2023/09/04 10:03:47;;;;;;;4.78;4.10;;;;;;;21.48;71.90;99649.81;4839800;29;20403;-38
2023/09/04 10:06:23;;;;;;;5.18;4.00;;;;;;;21.68;71.12;99651.59;4839085;29;20510;-41
2023/09/04 10:08:51;;;;;;;4.68;4.00;;;;;;;21.30;73.06;99648.50;4838928;29;20026;-39
2023/09/04 10:11:17;;;;;;;4.40;3.70;;;;;;;20.98;74.27;99657.00;4839807;29;20029;-38
2023/09/04 10:14:08;;;;;;;4.47;3.80;;;;;;;21.02;75.24;99655.38;4839701;29;20038;-39
2023/09/04 10:16:40;;;;;;;4.32;3.88;;;;;;;21.35;72.21;99656.59;4839254;29;20468;-39
2023/09/04 10:19:10;;;;;;;6.20;4.30;;;;;;;21.34;72.71;99665.78;4838943;29;20168;-40
2023/09/04 10:21:40;;;;;;;4.72;3.83;;;;;;;21.48;72.46;99666.88;4838964;29;20280;-40
2023/09/04 10:24:12;;;;;;;6.93;5.47;;;;;;;21.80;70.95;99656.66;4839181;29;20026;-40
2023/09/04 10:27:00;;;;;;;6.80;5.20;;;;;;;21.44;71.79;99668.50;4839300;29;20171;-40
2023/09/04 10:29:28;;;;;;;5.20;4.53;;;;;;;21.62;70.64;99663.56;4839818;29;20105;-40
2023/09/04 10:31:55;;;;;;;4.47;4.03;;;;;;;21.09;72.80;99661.28;4839999;29;20053;-39
2023/09/04 10:34:20;;;;;;;5.95;4.22;;;;;;;21.18;72.78;99659.63;4839967;29;20069;-40
2023/09/04 10:36:48;;;;;;;4.72;3.90;;;;;;;21.29;72.72;99653.09;4839882;29;20054;-39
2023/09/04 10:39:13;;;;;;;4.85;4.25;;;;;;;21.32;73.92;99656.34;4839832;29;20029;-39
2023/09/04 10:41:39;;;;;;;5.18;4.00;;;;;;;21.42;72.89;99669.84;4840016;29;20403;-40
2023/09/04 10:44:05;;;;;;;4.05;3.65;;;;;;;20.82;71.96;99673.25;4841572;29;20034;-40
2023/09/04 10:46:30;;;;;;;4.75;3.50;;;;;;;20.96;71.92;99659.16;4843587;29;20105;-39
2023/09/04 10:48:56;;;;;;;7.38;3.60;;;;;;;20.71;73.80;99674.34;4843221;29;20026;-39
2023/09/04 10:51:24;;;;;;;5.03;3.63;;;;;;;20.84;72.90;99662.16;4843413;29;20038;-39
2023/09/04 10:53:50;;;;;;;4.13;3.58;;;;;;;20.57;74.41;99659.75;4843686;29;20065;-38
2023/09/04 10:56:15;;;;;;;4.38;3.72;;;;;;;20.43;75.31;99657.59;4843066;29;20061;-39
2023/09/04 10:59:04;;;;;;;5.00;3.90;;;;;;;20.84;74.15;99662.16;4843467;29;20487;-39
2023/09/04 11:01:37;;;;;;;5.35;4.03;;;;;;;20.73;74.70;99661.34;4843594;29;20026;-39
2023/09/04 11:04:10;;;;;;;4.07;3.67;;;;;;;20.82;73.44;99654.31;4843514;29;20046;-39
2023/09/04 11:06:40;;;;;;;4.95;3.88;;;;;;;20.35;75.96;99660.00;4842872;29;20507;-39
2023/09/04 11:09:11;;;;;;;4.22;3.83;;;;;;;20.65;74.88;99667.31;4842989;29;20030;-44
2023/09/04 11:11:36;;;;;;;5.15;4.22;;;;;;;20.54;75.55;99660.28;4842980;29;20404;-39
2023/09/04 11:14:05;;;;;;;4.15;3.75;;;;;;;20.85;73.25;99664.59;4842412;29;20517;-40
2023/09/04 11:16:37;;;;;;;4.78;4.10;;;;;;;20.63;73.62;99670.28;4842014;29;20082;-40
2023/09/04 11:19:13;;;;;;;4.78;4.28;;;;;;;20.29;75.31;99667.31;4841590;29;20098;-40
2023/09/04 11:21:42;;;;;;;4.82;3.90;;;;;;;20.13;77.81;99680.00;4841586;29;20483;-39
2023/09/04 11:24:08;;;;;;;5.38;4.25;;;;;;;20.19;77.62;99670.00;4841573;29;20034;-39
2023/09/04 11:26:34;;;;;;;5.65;4.00;;;;;;;20.60;75.29;99670.03;4841500;29;20042;-39
2023/09/04 11:29:01;;;;;;;4.45;3.97;;;;;;;20.73;74.58;99671.38;4842146;29;20037;-40
2023/09/04 11:31:28;;;;;;;5.35;4.10;;;;;;;20.46;75.60;99667.84;4842177;29;20467;-39